Liberty Hill, TX (78642)

11:48 AM CST on December 28, 2014 (GMT -0600)
Sundance Estates | Change Station
CLOSE
Current Station
Personal Weather Station
Location: Liberty Hill, TX
Elevation: 1093 ft
Nearby Weather Stations

Elev 1093 ft 30.68 °N, 97.92 °W | Updated 1 minute ago

Overcast
Overcast
37.8 °F
Feels Like 38 °F
N
2.2
Wind Variable Wind from NE
Gusts 5.4 mph

Today
High -- | Low -- °F
--% Chance of Precip.
Yesterday
High -- | Low -- °F
Precip. -- in
7:27 AM 5:38 PM
Waxing Crescent, 50% visible
Pressure 30.26 in
Visibility 10.0 miles
Clouds Overcast 5000 ft
Windchill 38 °F
Dew Point 19 °F
Humidity 46%
Rainfall 0.06 in
Snow Depth Not available.
UV 1 out of 12
Pollen 8.90 out of 12
Air Quality Not available.
Flu Activity Not available.
METAR KRYW 281735Z AUTO 34007KT 10SM OVC050 03/00 A3026 RMK AO2 T00310002

More Conditions Fewer Conditions

Pressure 30.26 in
Visibility 10.0 miles
Clouds Overcast 5000 ft
Windchill 38 °F
Dew Point 19 °F
Humidity 46%
Rainfall 0.06 in
Snow Depth Not available.
UV 1 out of 12
Pollen 8.90 out of 12
Air Quality Not available.
Flu Activity Not available.
METAR KRYW 281735Z AUTO 34007KT 10SM OVC050 03/00 A3026 RMK AO2 T00310002

More Conditions Fewer Conditions

Nowcast | as of 9:47 am CST on December 28, 2014

Through noon CST...light rain showers will move across the region to the northeast. Morning rainfall totals will range from a few hundredths of an inch over The Hill Country up to near 1/2 inch along and east of I-35.

×

10-Day Weather Forecast

Almanac

Astronomy

Dec. 28, 2014 Rise Set
Actual Time
Civil Twilight
Nautical Twilight
Astronomical Twilight
Moon
Length of Visible Light
Length of Day
Tomorrow will be .
, % of the Moon is Illuminated

Today's Extremes

State Highs State Lows

Community

WunderPhotos

Upload Photos

1,781,367 photos uploaded!

WunderBlogs® & News

Nearby

Air Quality

  Air Quality AQ Index Pollutant
Not available.

Snow Depth

Station Depth Elevation

Earthquake Activity

City Distance Mag. Time & Date
Minimum magnitude displayed is 2.5.

Coastal Water Temperatures

Place Temperature

Nearby Weather Stations